KMGR

Details ICAO KMGR
Name MOULTRIE MUNI
Region United States
Timezone America/New_York (UTC-5.0)
Plans Departing 0
Arriving 0
Stats Elevation 294 ft / 90 m (AMSL)
Location 31.084747° -83.803063°
Runways 2
Magnetic Variation 5.165° W
Sunrise 2017-12-18 12:29:24 UTC / 2017-12-18 07:29:24 Local
Sunset 2017-12-18 22:37:11 UTC / 2017-12-18 17:37:11 Local
Advertisement - Login to hide

Runways

ID Width Length Bearing (true) Bearing (mag) Surface Threshold Offset Overrun Length
04 100 ft / 30 m 5,136 ft / 1,565 m 38.74° 43.91° Asphalt 0 ft / 0 m 0 ft / 0 m
16 75 ft / 23 m 3,888 ft / 1,185 m 159.38° 164.55° Asphalt 260 ft / 79 m 200 ft / 61 m
22 100 ft / 30 m 5,136 ft / 1,565 m 218.74° 223.91° Asphalt 0 ft / 0 m 0 ft / 0 m
34 75 ft / 23 m 3,888 ft / 1,185 m 339.38° 344.55° Asphalt 0 ft / 0 m 0 ft / 0 m

Map

Weather


0- 5 10 15 20 25 30 35+ Temperature / ° C

Clouds and Precipitation
Forecast for 2017-12-18 12:00 UTC. Updated 2 hours ago

Ground ~20,000 ft ~40,000 ft Winds

METAR

KMGR 180915Z AUTO 20005KT 5SM BR 18/17 A3016 RMK AO2

TAF

Not found

Frequencies

Recorded 118.92 MHz AWOS 3
Approach 119.52 MHz VALDOSTA APP/DEP
Unicom 122.80 MHz CTAF/UNICOM
Approach 126.60 MHz VALDOSTA APP/DEP
Warning: Do not use this data for real-world aviation or navigation. No guarantee of current accuracy is given.